sensor_id;sensor_type;location;lat;lon;timestamp;P1;durP1;ratioP1;P2;durP2;ratioP2
55260;SDS011;41123;51.416;6.758;2022-09-09T00:00:06;5.15;;;1.20;;
55260;SDS011;41123;51.416;6.758;2022-09-09T00:02:35;3.75;;;1.20;;
55260;SDS011;41123;51.416;6.758;2022-09-09T00:05:12;5.00;;;1.17;;
55260;SDS011;41123;51.416;6.758;2022-09-09T00:07:43;2.53;;;1.17;;
55260;SDS011;41123;51.416;6.758;2022-09-09T00:10:28;2.85;;;1.25;;
55260;SDS011;41123;51.416;6.758;2022-09-09T00:18:17;3.75;;;0.95;;
55260;SDS011;41123;51.416;6.758;2022-09-09T00:20:49;3.55;;;0.90;;
55260;SDS011;41123;51.416;6.758;2022-09-09T00:25:53;4.70;;;0.90;;
55260;SDS011;41123;51.416;6.758;2022-09-09T00:28:22;3.05;;;0.80;;
55260;SDS011;41123;51.416;6.758;2022-09-09T00:30:48;3.40;;;0.82;;
55260;SDS011;41123;51.416;6.758;2022-09-09T00:33:16;4.32;;;0.90;;
55260;SDS011;41123;51.416;6.758;2022-09-09T00:35:50;2.47;;;0.82;;
55260;SDS011;41123;51.416;6.758;2022-09-09T00:38:19;4.83;;;1.10;;
55260;SDS011;41123;51.416;6.758;2022-09-09T00:43:31;3.78;;;1.15;;
55260;SDS011;41123;51.416;6.758;2022-09-09T00:46:20;4.13;;;1.02;;
55260;SDS011;41123;51.416;6.758;2022-09-09T00:51:17;3.00;;;1.10;;
55260;SDS011;41123;51.416;6.758;2022-09-09T00:54:12;4.47;;;1.08;;
55260;SDS011;41123;51.416;6.758;2022-09-09T00:56:46;4.47;;;1.17;;
55260;SDS011;41123;51.416;6.758;2022-09-09T00:59:21;5.95;;;1.35;;
55260;SDS011;41123;51.416;6.758;2022-09-09T01:01:50;6.22;;;1.55;;
55260;SDS011;41123;51.416;6.758;2022-09-09T01:04:18;4.18;;;1.35;;
55260;SDS011;41123;51.416;6.758;2022-09-09T01:06:48;3.47;;;1.23;;
55260;SDS011;41123;51.416;6.758;2022-09-09T01:12:26;4.97;;;1.40;;
55260;SDS011;41123;51.416;6.758;2022-09-09T01:15:17;3.08;;;1.30;;
55260;SDS011;41123;51.416;6.758;2022-09-09T01:17:56;5.22;;;1.60;;
55260;SDS011;41123;51.416;6.758;2022-09-09T01:20:25;5.00;;;1.20;;
55260;SDS011;41123;51.416;6.758;2022-09-09T01:22:59;3.60;;;1.35;;
55260;SDS011;41123;51.416;6.758;2022-09-09T01:28:21;4.07;;;1.33;;
55260;SDS011;41123;51.416;6.758;2022-09-09T01:30:50;4.07;;;1.65;;
55260;SDS011;41123;51.416;6.758;2022-09-09T01:33:19;3.78;;;1.50;;
55260;SDS011;41123;51.416;6.758;2022-09-09T01:35:50;4.15;;;1.50;;
55260;SDS011;41123;51.416;6.758;2022-09-09T01:38:22;4.57;;;1.52;;
55260;SDS011;41123;51.416;6.758;2022-09-09T01:40:50;3.80;;;1.55;;
55260;SDS011;41123;51.416;6.758;2022-09-09T01:43:21;3.70;;;1.47;;
55260;SDS011;41123;51.416;6.758;2022-09-09T01:45:48;4.33;;;1.50;;
55260;SDS011;41123;51.416;6.758;2022-09-09T01:48:16;3.55;;;1.25;;
55260;SDS011;41123;51.416;6.758;2022-09-09T01:50:46;3.90;;;1.42;;
55260;SDS011;41123;51.416;6.758;2022-09-09T01:53:12;3.38;;;1.30;;
55260;SDS011;41123;51.416;6.758;2022-09-09T01:55:41;4.22;;;1.40;;
55260;SDS011;41123;51.416;6.758;2022-09-09T02:00:49;4.72;;;1.40;;
55260;SDS011;41123;51.416;6.758;2022-09-09T02:09:07;3.05;;;1.50;;
55260;SDS011;41123;51.416;6.758;2022-09-09T02:11:16;6.90;;;1.73;;
55260;SDS011;41123;51.416;6.758;2022-09-09T02:13:51;4.07;;;1.67;;
55260;SDS011;41123;51.416;6.758;2022-09-09T02:16:21;3.85;;;1.40;;
55260;SDS011;41123;51.416;6.758;2022-09-09T02:18:50;7.85;;;1.50;;
55260;SDS011;41123;51.416;6.758;2022-09-09T02:21:23;6.35;;;1.60;;
55260;SDS011;41123;51.416;6.758;2022-09-09T02:23:49;5.35;;;1.40;;
55260;SDS011;41123;51.416;6.758;2022-09-09T02:26:17;3.90;;;1.40;;
55260;SDS011;41123;51.416;6.758;2022-09-09T02:28:51;3.58;;;1.30;;
55260;SDS011;41123;51.416;6.758;2022-09-09T02:31:20;5.43;;;1.70;;
55260;SDS011;41123;51.416;6.758;2022-09-09T02:33:51;3.55;;;1.30;;
55260;SDS011;41123;51.416;6.758;2022-09-09T02:36:18;4.78;;;1.60;;
55260;SDS011;41123;51.416;6.758;2022-09-09T02:38:46;4.40;;;1.70;;
55260;SDS011;41123;51.416;6.758;2022-09-09T02:41:20;5.32;;;1.70;;
55260;SDS011;41123;51.416;6.758;2022-09-09T02:43:48;6.32;;;2.10;;
55260;SDS011;41123;51.416;6.758;2022-09-09T02:48:51;3.90;;;1.50;;
55260;SDS011;41123;51.416;6.758;2022-09-09T02:52:02;4.00;;;1.60;;
55260;SDS011;41123;51.416;6.758;2022-09-09T02:54:18;3.95;;;1.50;;
55260;SDS011;41123;51.416;6.758;2022-09-09T02:56:49;3.95;;;1.50;;
55260;SDS011;41123;51.416;6.758;2022-09-09T02:59:20;3.75;;;1.33;;
55260;SDS011;41123;51.416;6.758;2022-09-09T03:01:47;6.68;;;1.67;;
55260;SDS011;41123;51.416;6.758;2022-09-09T03:04:13;5.03;;;1.65;;
55260;SDS011;41123;51.416;6.758;2022-09-09T03:06:39;4.53;;;1.40;;
55260;SDS011;41123;51.416;6.758;2022-09-09T03:09:15;3.70;;;1.48;;
55260;SDS011;41123;51.416;6.758;2022-09-09T03:11:41;5.90;;;1.77;;
55260;SDS011;41123;51.416;6.758;2022-09-09T03:14:07;8.15;;;1.73;;
55260;SDS011;41123;51.416;6.758;2022-09-09T03:16:36;4.50;;;1.50;;
55260;SDS011;41123;51.416;6.758;2022-09-09T03:19:02;5.57;;;1.30;;
55260;SDS011;41123;51.416;6.758;2022-09-09T03:21:29;5.43;;;1.40;;
55260;SDS011;41123;51.416;6.758;2022-09-09T03:23:56;4.78;;;1.30;;
55260;SDS011;41123;51.416;6.758;2022-09-09T03:26:22;5.63;;;1.73;;
55260;SDS011;41123;51.416;6.758;2022-09-09T03:28:48;6.93;;;1.73;;
55260;SDS011;41123;51.416;6.758;2022-09-09T03:31:18;5.38;;;1.52;;
55260;SDS011;41123;51.416;6.758;2022-09-09T03:33:45;6.67;;;1.77;;
55260;SDS011;41123;51.416;6.758;2022-09-09T03:36:14;5.10;;;1.58;;
55260;SDS011;41123;51.416;6.758;2022-09-09T03:38:40;6.15;;;1.75;;
55260;SDS011;41123;51.416;6.758;2022-09-09T03:41:07;4.93;;;1.50;;
55260;SDS011;41123;51.416;6.758;2022-09-09T03:43:34;8.75;;;1.67;;
55260;SDS011;41123;51.416;6.758;2022-09-09T03:46:00;5.63;;;1.50;;
55260;SDS011;41123;51.416;6.758;2022-09-09T03:48:28;7.35;;;1.67;;
55260;SDS011;41123;51.416;6.758;2022-09-09T03:50:55;7.95;;;1.80;;
55260;SDS011;41123;51.416;6.758;2022-09-09T03:53:24;5.38;;;1.70;;
55260;SDS011;41123;51.416;6.758;2022-09-09T03:55:52;6.80;;;1.80;;
55260;SDS011;41123;51.416;6.758;2022-09-09T03:58:23;5.35;;;1.67;;
55260;SDS011;41123;51.416;6.758;2022-09-09T04:00:57;4.47;;;1.77;;
55260;SDS011;41123;51.416;6.758;2022-09-09T04:03:25;7.38;;;2.13;;
55260;SDS011;41123;51.416;6.758;2022-09-09T04:05:52;8.23;;;1.90;;
55260;SDS011;41123;51.416;6.758;2022-09-09T04:08:19;6.43;;;1.70;;
55260;SDS011;41123;51.416;6.758;2022-09-09T04:10:49;6.20;;;1.75;;
55260;SDS011;41123;51.416;6.758;2022-09-09T04:13:17;6.30;;;1.85;;
55260;SDS011;41123;51.416;6.758;2022-09-09T04:15:52;7.07;;;1.95;;
55260;SDS011;41123;51.416;6.758;2022-09-09T04:18:19;4.85;;;1.85;;
55260;SDS011;41123;51.416;6.758;2022-09-09T04:20:47;7.63;;;1.80;;
55260;SDS011;41123;51.416;6.758;2022-09-09T04:23:13;7.53;;;1.80;;
55260;SDS011;41123;51.416;6.758;2022-09-09T04:25:43;4.95;;;1.60;;
55260;SDS011;41123;51.416;6.758;2022-09-09T04:28:10;7.63;;;1.77;;
55260;SDS011;41123;51.416;6.758;2022-09-09T04:30:36;6.00;;;1.52;;
55260;SDS011;41123;51.416;6.758;2022-09-09T04:33:05;7.30;;;1.73;;
55260;SDS011;41123;51.416;6.758;2022-09-09T04:35:32;6.70;;;1.58;;
55260;SDS011;41123;51.416;6.758;2022-09-09T04:37:58;5.53;;;1.50;;
55260;SDS011;41123;51.416;6.758;2022-09-09T04:40:26;5.63;;;1.60;;
55260;SDS011;41123;51.416;6.758;2022-09-09T04:42:53;6.43;;;1.67;;
55260;SDS011;41123;51.416;6.758;2022-09-09T04:45:19;8.13;;;1.65;;
55260;SDS011;41123;51.416;6.758;2022-09-09T04:47:46;4.82;;;1.88;;
55260;SDS011;41123;51.416;6.758;2022-09-09T04:50:12;5.88;;;2.08;;
55260;SDS011;41123;51.416;6.758;2022-09-09T04:52:41;6.80;;;1.87;;
55260;SDS011;41123;51.416;6.758;2022-09-09T04:55:08;6.10;;;1.60;;
55260;SDS011;41123;51.416;6.758;2022-09-09T04:57:35;5.95;;;1.80;;
55260;SDS011;41123;51.416;6.758;2022-09-09T05:00:02;9.82;;;1.80;;
55260;SDS011;41123;51.416;6.758;2022-09-09T05:02:36;7.35;;;1.70;;
55260;SDS011;41123;51.416;6.758;2022-09-09T05:05:04;6.43;;;1.70;;
55260;SDS011;41123;51.416;6.758;2022-09-09T05:07:30;9.20;;;1.77;;
55260;SDS011;41123;51.416;6.758;2022-09-09T05:09:57;7.85;;;1.65;;
55260;SDS011;41123;51.416;6.758;2022-09-09T05:12:24;8.50;;;1.80;;
55260;SDS011;41123;51.416;6.758;2022-09-09T05:14:54;9.32;;;2.20;;
55260;SDS011;41123;51.416;6.758;2022-09-09T05:17:20;7.78;;;1.75;;
55260;SDS011;41123;51.416;6.758;2022-09-09T05:19:47;7.80;;;1.75;;
55260;SDS011;41123;51.416;6.758;2022-09-09T05:22:18;6.70;;;1.73;;
55260;SDS011;41123;51.416;6.758;2022-09-09T05:24:49;6.90;;;1.97;;
55260;SDS011;41123;51.416;6.758;2022-09-09T05:27:17;7.97;;;1.73;;
55260;SDS011;41123;51.416;6.758;2022-09-09T05:29:45;9.73;;;2.08;;
55260;SDS011;41123;51.416;6.758;2022-09-09T05:32:12;9.50;;;1.92;;
55260;SDS011;41123;51.416;6.758;2022-09-09T05:34:41;8.70;;;2.00;;
55260;SDS011;41123;51.416;6.758;2022-09-09T05:37:07;10.10;;;2.58;;
55260;SDS011;41123;51.416;6.758;2022-09-09T05:39:34;10.05;;;2.05;;
55260;SDS011;41123;51.416;6.758;2022-09-09T05:42:02;6.78;;;1.85;;
55260;SDS011;41123;51.416;6.758;2022-09-09T05:44:31;8.82;;;2.40;;
55260;SDS011;41123;51.416;6.758;2022-09-09T05:46:59;9.83;;;2.00;;
55260;SDS011;41123;51.416;6.758;2022-09-09T05:49:25;9.60;;;2.20;;
55260;SDS011;41123;51.416;6.758;2022-09-09T05:51:52;8.07;;;2.20;;
55260;SDS011;41123;51.416;6.758;2022-09-09T05:54:19;7.30;;;1.88;;
55260;SDS011;41123;51.416;6.758;2022-09-09T05:56:49;8.77;;;1.95;;
55260;SDS011;41123;51.416;6.758;2022-09-09T05:59:16;7.78;;;1.92;;
55260;SDS011;41123;51.416;6.758;2022-09-09T06:01:42;8.07;;;1.90;;
55260;SDS011;41123;51.416;6.758;2022-09-09T06:04:23;7.68;;;1.98;;
55260;SDS011;41123;51.416;6.758;2022-09-09T06:06:50;10.95;;;2.50;;
55260;SDS011;41123;51.416;6.758;2022-09-09T06:09:19;7.93;;;2.30;;
55260;SDS011;41123;51.416;6.758;2022-09-09T06:11:46;8.60;;;2.22;;
55260;SDS011;41123;51.416;6.758;2022-09-09T06:14:13;7.97;;;2.28;;
55260;SDS011;41123;51.416;6.758;2022-09-09T06:16:41;9.80;;;2.10;;
55260;SDS011;41123;51.416;6.758;2022-09-09T06:19:19;6.27;;;1.70;;
55260;SDS011;41123;51.416;6.758;2022-09-09T06:21:46;8.73;;;1.80;;
55260;SDS011;41123;51.416;6.758;2022-09-09T06:24:13;7.75;;;2.50;;
55260;SDS011;41123;51.416;6.758;2022-09-09T06:26:42;9.33;;;2.47;;
55260;SDS011;41123;51.416;6.758;2022-09-09T06:29:13;8.02;;;2.30;;
55260;SDS011;41123;51.416;6.758;2022-09-09T06:31:41;10.90;;;2.47;;
55260;SDS011;41123;51.416;6.758;2022-09-09T06:34:13;10.32;;;2.30;;
55260;SDS011;41123;51.416;6.758;2022-09-09T06:36:44;7.38;;;2.83;;
55260;SDS011;41123;51.416;6.758;2022-09-09T06:39:11;9.05;;;2.70;;
55260;SDS011;41123;51.416;6.758;2022-09-09T06:41:39;9.02;;;2.30;;
55260;SDS011;41123;51.416;6.758;2022-09-09T06:44:09;10.03;;;2.70;;
55260;SDS011;41123;51.416;6.758;2022-09-09T06:46:40;9.98;;;2.60;;
55260;SDS011;41123;51.416;6.758;2022-09-09T06:49:09;10.60;;;2.63;;
55260;SDS011;41123;51.416;6.758;2022-09-09T06:51:36;9.93;;;2.10;;
55260;SDS011;41123;51.416;6.758;2022-09-09T06:54:08;8.93;;;2.20;;
55260;SDS011;41123;51.416;6.758;2022-09-09T06:56:38;8.82;;;2.53;;
55260;SDS011;41123;51.416;6.758;2022-09-09T06:59:10;10.57;;;2.47;;
55260;SDS011;41123;51.416;6.758;2022-09-09T07:01:38;8.93;;;2.30;;
55260;SDS011;41123;51.416;6.758;2022-09-09T07:04:09;10.93;;;2.70;;
55260;SDS011;41123;51.416;6.758;2022-09-09T07:06:38;8.90;;;2.20;;
55260;SDS011;41123;51.416;6.758;2022-09-09T07:09:07;9.20;;;2.08;;
55260;SDS011;41123;51.416;6.758;2022-09-09T07:11:38;10.20;;;2.13;;
55260;SDS011;41123;51.416;6.758;2022-09-09T07:14:04;7.77;;;2.17;;
55260;SDS011;41123;51.416;6.758;2022-09-09T07:16:31;8.52;;;1.92;;
55260;SDS011;41123;51.416;6.758;2022-09-09T07:18:59;10.30;;;1.75;;
55260;SDS011;41123;51.416;6.758;2022-09-09T07:21:27;8.82;;;1.60;;
55260;SDS011;41123;51.416;6.758;2022-09-09T07:23:54;9.23;;;1.75;;
55260;SDS011;41123;51.416;6.758;2022-09-09T07:26:22;8.90;;;1.90;;
55260;SDS011;41123;51.416;6.758;2022-09-09T07:28:49;6.68;;;1.67;;
55260;SDS011;41123;51.416;6.758;2022-09-09T07:31:17;9.07;;;1.90;;
55260;SDS011;41123;51.416;6.758;2022-09-09T07:33:44;7.60;;;1.80;;
55260;SDS011;41123;51.416;6.758;2022-09-09T07:41:07;8.02;;;2.00;;
55260;SDS011;41123;51.416;6.758;2022-09-09T07:43:38;8.82;;;1.60;;
55260;SDS011;41123;51.416;6.758;2022-09-09T07:46:05;5.90;;;1.40;;
55260;SDS011;41123;51.416;6.758;2022-09-09T07:48:31;5.40;;;1.50;;
55260;SDS011;41123;51.416;6.758;2022-09-09T07:53:31;10.40;;;2.20;;
55260;SDS011;41123;51.416;6.758;2022-09-09T07:56:04;7.20;;;1.70;;
55260;SDS011;41123;51.416;6.758;2022-09-09T07:58:31;10.73;;;1.90;;
55260;SDS011;41123;51.416;6.758;2022-09-09T08:00:57;7.63;;;1.60;;
55260;SDS011;41123;51.416;6.758;2022-09-09T08:03:23;7.97;;;1.73;;
55260;SDS011;41123;51.416;6.758;2022-09-09T08:05:50;8.70;;;1.70;;
55260;SDS011;41123;51.416;6.758;2022-09-09T08:08:16;6.15;;;1.30;;
55260;SDS011;41123;51.416;6.758;2022-09-09T08:10:43;7.53;;;1.40;;
55260;SDS011;41123;51.416;6.758;2022-09-09T08:13:09;10.80;;;1.70;;
55260;SDS011;41123;51.416;6.758;2022-09-09T08:15:36;8.60;;;1.60;;
55260;SDS011;41123;51.416;6.758;2022-09-09T08:18:03;8.60;;;2.20;;
55260;SDS011;41123;51.416;6.758;2022-09-09T08:20:29;6.50;;;1.52;;
55260;SDS011;41123;51.416;6.758;2022-09-09T08:22:56;9.57;;;1.90;;
55260;SDS011;41123;51.416;6.758;2022-09-09T08:25:22;7.30;;;1.52;;
55260;SDS011;41123;51.416;6.758;2022-09-09T08:27:48;8.40;;;1.60;;
55260;SDS011;41123;51.416;6.758;2022-09-09T08:30:14;7.38;;;1.73;;
55260;SDS011;41123;51.416;6.758;2022-09-09T08:32:40;7.50;;;1.40;;
55260;SDS011;41123;51.416;6.758;2022-09-09T08:35:08;9.23;;;1.73;;
55260;SDS011;41123;51.416;6.758;2022-09-09T08:37:35;7.77;;;1.80;;
55260;SDS011;41123;51.416;6.758;2022-09-09T08:40:01;9.73;;;1.57;;
55260;SDS011;41123;51.416;6.758;2022-09-09T08:42:41;6.07;;;1.50;;
55260;SDS011;41123;51.416;6.758;2022-09-09T08:47:47;6.30;;;1.60;;
55260;SDS011;41123;51.416;6.758;2022-09-09T08:57:55;7.35;;;1.50;;
55260;SDS011;41123;51.416;6.758;2022-09-09T09:00:25;8.25;;;1.95;;
55260;SDS011;41123;51.416;6.758;2022-09-09T09:03:11;7.40;;;1.60;;
55260;SDS011;41123;51.416;6.758;2022-09-09T09:05:46;7.00;;;1.30;;
55260;SDS011;41123;51.416;6.758;2022-09-09T09:10:50;6.15;;;1.20;;
55260;SDS011;41123;51.416;6.758;2022-09-09T09:16:14;8.88;;;1.88;;
55260;SDS011;41123;51.416;6.758;2022-09-09T09:18:44;7.85;;;1.52;;
55260;SDS011;41123;51.416;6.758;2022-09-09T09:21:20;10.90;;;3.70;;
55260;SDS011;41123;51.416;6.758;2022-09-09T09:23:59;8.63;;;2.72;;
55260;SDS011;41123;51.416;6.758;2022-09-09T09:26:30;5.88;;;1.95;;
55260;SDS011;41123;51.416;6.758;2022-09-09T09:28:57;15.35;;;2.00;;
55260;SDS011;41123;51.416;6.758;2022-09-09T09:31:25;8.98;;;2.00;;
55260;SDS011;41123;51.416;6.758;2022-09-09T09:33:53;10.90;;;1.93;;
55260;SDS011;41123;51.416;6.758;2022-09-09T09:36:24;6.70;;;1.88;;
55260;SDS011;41123;51.416;6.758;2022-09-09T09:39:00;9.27;;;2.03;;
55260;SDS011;41123;51.416;6.758;2022-09-09T09:43:58;10.00;;;2.10;;
55260;SDS011;41123;51.416;6.758;2022-09-09T09:46:27;7.20;;;2.00;;
55260;SDS011;41123;51.416;6.758;2022-09-09T09:49:02;7.40;;;1.97;;
55260;SDS011;41123;51.416;6.758;2022-09-09T09:51:31;7.25;;;1.80;;
55260;SDS011;41123;51.416;6.758;2022-09-09T09:57:06;9.82;;;2.83;;
55260;SDS011;41123;51.416;6.758;2022-09-09T09:59:34;7.25;;;2.00;;
55260;SDS011;41123;51.416;6.758;2022-09-09T10:02:15;9.52;;;1.40;;
55260;SDS011;41123;51.416;6.758;2022-09-09T10:04:43;5.97;;;1.60;;
55260;SDS011;41123;51.416;6.758;2022-09-09T10:07:13;5.60;;;1.70;;
55260;SDS011;41123;51.416;6.758;2022-09-09T10:09:42;6.68;;;1.25;;
55260;SDS011;41123;51.416;6.758;2022-09-09T10:12:27;7.13;;;1.20;;
55260;SDS011;41123;51.416;6.758;2022-09-09T10:17:59;4.78;;;1.02;;
55260;SDS011;41123;51.416;6.758;2022-09-09T10:23:32;6.78;;;1.17;;
55260;SDS011;41123;51.416;6.758;2022-09-09T10:31:41;4.57;;;1.10;;
55260;SDS011;41123;51.416;6.758;2022-09-09T10:36:44;4.68;;;1.10;;
55260;SDS011;41123;51.416;6.758;2022-09-09T10:39:17;4.78;;;1.40;;
55260;SDS011;41123;51.416;6.758;2022-09-09T10:41:47;5.50;;;1.80;;
55260;SDS011;41123;51.416;6.758;2022-09-09T10:52:09;6.05;;;1.35;;
55260;SDS011;41123;51.416;6.758;2022-09-09T10:57:14;6.28;;;1.35;;
55260;SDS011;41123;51.416;6.758;2022-09-09T10:59:45;5.82;;;1.30;;
55260;SDS011;41123;51.416;6.758;2022-09-09T11:02:15;4.43;;;1.50;;
55260;SDS011;41123;51.416;6.758;2022-09-09T11:04:46;7.18;;;1.60;;
55260;SDS011;41123;51.416;6.758;2022-09-09T11:07:18;4.35;;;1.38;;
55260;SDS011;41123;51.416;6.758;2022-09-09T11:09:54;6.63;;;1.13;;
55260;SDS011;41123;51.416;6.758;2022-09-09T11:12:24;6.43;;;1.23;;
55260;SDS011;41123;51.416;6.758;2022-09-09T11:14:56;5.55;;;1.05;;
55260;SDS011;41123;51.416;6.758;2022-09-09T11:17:42;7.32;;;1.27;;
55260;SDS011;41123;51.416;6.758;2022-09-09T11:20:12;4.37;;;1.17;;
55260;SDS011;41123;51.416;6.758;2022-09-09T11:22:55;7.18;;;1.30;;
55260;SDS011;41123;51.416;6.758;2022-09-09T11:25:26;6.18;;;1.67;;
55260;SDS011;41123;51.416;6.758;2022-09-09T11:35:56;4.53;;;1.27;;
55260;SDS011;41123;51.416;6.758;2022-09-09T11:38:44;6.43;;;1.55;;
55260;SDS011;41123;51.416;6.758;2022-09-09T11:41:12;2.95;;;1.00;;
55260;SDS011;41123;51.416;6.758;2022-09-09T11:43:45;4.20;;;1.20;;
55260;SDS011;41123;51.416;6.758;2022-09-09T11:46:13;3.67;;;1.00;;
55260;SDS011;41123;51.416;6.758;2022-09-09T11:48:44;3.80;;;0.85;;
55260;SDS011;41123;51.416;6.758;2022-09-09T11:51:11;5.32;;;1.20;;
55260;SDS011;41123;51.416;6.758;2022-09-09T11:56:41;4.43;;;0.83;;
55260;SDS011;41123;51.416;6.758;2022-09-09T11:59:21;3.20;;;0.90;;
55260;SDS011;41123;51.416;6.758;2022-09-09T12:09:22;3.97;;;0.98;;
55260;SDS011;41123;51.416;6.758;2022-09-09T12:11:49;7.90;;;1.35;;
55260;SDS011;41123;51.416;6.758;2022-09-09T12:14:19;4.07;;;1.10;;
55260;SDS011;41123;51.416;6.758;2022-09-09T12:16:46;3.42;;;0.95;;
55260;SDS011;41123;51.416;6.758;2022-09-09T12:19:19;4.95;;;1.40;;
55260;SDS011;41123;51.416;6.758;2022-09-09T12:24:19;3.63;;;1.00;;
55260;SDS011;41123;51.416;6.758;2022-09-09T12:29:27;4.18;;;1.00;;
55260;SDS011;41123;51.416;6.758;2022-09-09T12:34:40;3.33;;;1.00;;
55260;SDS011;41123;51.416;6.758;2022-09-09T12:37:14;6.15;;;0.90;;
55260;SDS011;41123;51.416;6.758;2022-09-09T12:42:39;3.92;;;0.93;;
55260;SDS011;41123;51.416;6.758;2022-09-09T12:45:14;4.32;;;1.20;;
55260;SDS011;41123;51.416;6.758;2022-09-09T12:47:44;4.15;;;1.30;;
55260;SDS011;41123;51.416;6.758;2022-09-09T12:50:19;6.90;;;1.90;;
55260;SDS011;41123;51.416;6.758;2022-09-09T12:52:47;6.07;;;1.48;;
55260;SDS011;41123;51.416;6.758;2022-09-09T12:55:18;5.80;;;1.30;;
55260;SDS011;41123;51.416;6.758;2022-09-09T12:57:45;6.65;;;1.70;;
55260;SDS011;41123;51.416;6.758;2022-09-09T13:00:15;5.47;;;1.40;;
55260;SDS011;41123;51.416;6.758;2022-09-09T13:02:45;4.15;;;1.20;;
55260;SDS011;41123;51.416;6.758;2022-09-09T13:05:20;6.97;;;1.50;;
55260;SDS011;41123;51.416;6.758;2022-09-09T13:07:46;4.93;;;1.27;;
55260;SDS011;41123;51.416;6.758;2022-09-09T13:10:14;4.57;;;1.13;;
55260;SDS011;41123;51.416;6.758;2022-09-09T13:12:40;4.10;;;1.20;;
55260;SDS011;41123;51.416;6.758;2022-09-09T13:15:14;5.20;;;1.50;;
55260;SDS011;41123;51.416;6.758;2022-09-09T13:17:49;7.10;;;2.67;;
55260;SDS011;41123;51.416;6.758;2022-09-09T13:20:18;10.93;;;3.95;;
55260;SDS011;41123;51.416;6.758;2022-09-09T13:22:46;11.85;;;4.70;;
55260;SDS011;41123;51.416;6.758;2022-09-09T13:25:18;13.00;;;4.75;;
55260;SDS011;41123;51.416;6.758;2022-09-09T13:27:54;10.35;;;4.50;;
55260;SDS011;41123;51.416;6.758;2022-09-09T13:30:21;10.35;;;3.70;;
55260;SDS011;41123;51.416;6.758;2022-09-09T13:35:27;10.30;;;3.33;;
55260;SDS011;41123;51.416;6.758;2022-09-09T13:37:53;9.20;;;3.40;;
55260;SDS011;41123;51.416;6.758;2022-09-09T13:40:20;11.35;;;3.25;;
55260;SDS011;41123;51.416;6.758;2022-09-09T13:42:46;9.50;;;3.05;;
55260;SDS011;41123;51.416;6.758;2022-09-09T13:45:21;8.70;;;2.80;;
55260;SDS011;41123;51.416;6.758;2022-09-09T13:47:48;9.15;;;2.40;;
55260;SDS011;41123;51.416;6.758;2022-09-09T13:50:29;6.95;;;2.47;;
55260;SDS011;41123;51.416;6.758;2022-09-09T13:52:58;12.03;;;3.03;;
55260;SDS011;41123;51.416;6.758;2022-09-09T13:55:25;7.82;;;3.30;;
55260;SDS011;41123;51.416;6.758;2022-09-09T13:57:56;7.95;;;3.20;;
55260;SDS011;41123;51.416;6.758;2022-09-09T14:00:22;7.72;;;2.40;;
55260;SDS011;41123;51.416;6.758;2022-09-09T14:02:50;9.85;;;2.75;;
55260;SDS011;41123;51.416;6.758;2022-09-09T14:05:19;8.63;;;2.00;;
55260;SDS011;41123;51.416;6.758;2022-09-09T14:07:45;5.60;;;1.83;;
55260;SDS011;41123;51.416;6.758;2022-09-09T14:10:12;6.78;;;1.67;;
55260;SDS011;41123;51.416;6.758;2022-09-09T14:12:38;5.90;;;2.08;;
55260;SDS011;41123;51.416;6.758;2022-09-09T14:15:05;5.97;;;2.00;;
55260;SDS011;41123;51.416;6.758;2022-09-09T14:17:32;5.10;;;1.90;;
55260;SDS011;41123;51.416;6.758;2022-09-09T14:19:59;5.97;;;1.92;;
55260;SDS011;41123;51.416;6.758;2022-09-09T14:22:25;6.38;;;1.60;;
55260;SDS011;41123;51.416;6.758;2022-09-09T14:24:51;5.53;;;1.85;;
55260;SDS011;41123;51.416;6.758;2022-09-09T14:27:17;5.03;;;1.50;;
55260;SDS011;41123;51.416;6.758;2022-09-09T14:29:44;6.72;;;1.50;;
55260;SDS011;41123;51.416;6.758;2022-09-09T14:32:11;6.30;;;1.48;;
55260;SDS011;41123;51.416;6.758;2022-09-09T14:34:37;5.45;;;1.60;;
55260;SDS011;41123;51.416;6.758;2022-09-09T14:37:03;8.30;;;1.85;;
55260;SDS011;41123;51.416;6.758;2022-09-09T14:39:29;5.03;;;1.20;;
55260;SDS011;41123;51.416;6.758;2022-09-09T14:41:55;4.28;;;1.00;;
55260;SDS011;41123;51.416;6.758;2022-09-09T14:44:21;5.70;;;0.80;;
55260;SDS011;41123;51.416;6.758;2022-09-09T14:46:48;4.20;;;1.00;;
55260;SDS011;41123;51.416;6.758;2022-09-09T14:49:17;2.38;;;0.90;;
55260;SDS011;41123;51.416;6.758;2022-09-09T14:51:43;3.47;;;0.80;;
55260;SDS011;41123;51.416;6.758;2022-09-09T14:54:09;3.30;;;0.75;;
55260;SDS011;41123;51.416;6.758;2022-09-09T14:56:36;2.87;;;0.80;;
55260;SDS011;41123;51.416;6.758;2022-09-09T14:59:03;2.57;;;0.70;;
55260;SDS011;41123;51.416;6.758;2022-09-09T15:01:29;2.90;;;0.60;;
55260;SDS011;41123;51.416;6.758;2022-09-09T15:03:57;2.13;;;0.70;;
55260;SDS011;41123;51.416;6.758;2022-09-09T15:06:24;4.00;;;0.80;;
55260;SDS011;41123;51.416;6.758;2022-09-09T15:08:51;2.20;;;0.90;;
55260;SDS011;41123;51.416;6.758;2022-09-09T15:11:18;3.10;;;1.00;;
55260;SDS011;41123;51.416;6.758;2022-09-09T15:13:45;3.28;;;1.20;;
55260;SDS011;41123;51.416;6.758;2022-09-09T15:16:16;4.20;;;1.20;;
55260;SDS011;41123;51.416;6.758;2022-09-09T15:18:43;4.25;;;1.75;;
55260;SDS011;41123;51.416;6.758;2022-09-09T15:21:14;5.43;;;2.28;;
55260;SDS011;41123;51.416;6.758;2022-09-09T15:23:40;6.55;;;2.72;;
55260;SDS011;41123;51.416;6.758;2022-09-09T15:26:07;7.10;;;3.00;;
55260;SDS011;41123;51.416;6.758;2022-09-09T15:28:34;6.13;;;2.05;;
55260;SDS011;41123;51.416;6.758;2022-09-09T15:31:07;4.68;;;1.90;;
55260;SDS011;41123;51.416;6.758;2022-09-09T15:33:33;3.58;;;1.30;;
55260;SDS011;41123;51.416;6.758;2022-09-09T15:36:11;4.30;;;1.50;;
55260;SDS011;41123;51.416;6.758;2022-09-09T15:38:37;2.53;;;1.20;;
55260;SDS011;41123;51.416;6.758;2022-09-09T15:41:04;3.50;;;1.10;;
55260;SDS011;41123;51.416;6.758;2022-09-09T15:43:30;2.55;;;0.85;;
55260;SDS011;41123;51.416;6.758;2022-09-09T15:45:57;3.90;;;1.10;;
55260;SDS011;41123;51.416;6.758;2022-09-09T15:48:30;2.72;;;0.82;;
55260;SDS011;41123;51.416;6.758;2022-09-09T15:51:01;3.28;;;0.95;;
55260;SDS011;41123;51.416;6.758;2022-09-09T15:53:28;2.60;;;0.90;;
55260;SDS011;41123;51.416;6.758;2022-09-09T15:55:55;2.72;;;0.88;;
55260;SDS011;41123;51.416;6.758;2022-09-09T15:58:21;3.03;;;1.00;;
55260;SDS011;41123;51.416;6.758;2022-09-09T16:00:47;3.30;;;1.10;;
55260;SDS011;41123;51.416;6.758;2022-09-09T16:03:13;3.97;;;0.90;;
55260;SDS011;41123;51.416;6.758;2022-09-09T16:05:40;3.08;;;0.80;;
55260;SDS011;41123;51.416;6.758;2022-09-09T16:08:06;3.65;;;0.90;;
55260;SDS011;41123;51.416;6.758;2022-09-09T16:10:32;2.67;;;0.70;;
55260;SDS011;41123;51.416;6.758;2022-09-09T16:12:58;1.70;;;0.70;;
55260;SDS011;41123;51.416;6.758;2022-09-09T16:15:24;4.72;;;1.00;;
55260;SDS011;41123;51.416;6.758;2022-09-09T16:17:53;4.18;;;1.10;;
55260;SDS011;41123;51.416;6.758;2022-09-09T16:20:19;4.05;;;1.20;;
55260;SDS011;41123;51.416;6.758;2022-09-09T16:22:45;3.20;;;1.05;;
55260;SDS011;41123;51.416;6.758;2022-09-09T16:25:11;2.75;;;0.95;;
55260;SDS011;41123;51.416;6.758;2022-09-09T16:27:37;2.67;;;0.80;;
55260;SDS011;41123;51.416;6.758;2022-09-09T16:30:04;4.93;;;1.00;;
55260;SDS011;41123;51.416;6.758;2022-09-09T16:32:30;2.20;;;1.00;;
55260;SDS011;41123;51.416;6.758;2022-09-09T16:34:56;3.03;;;0.90;;
55260;SDS011;41123;51.416;6.758;2022-09-09T16:37:22;4.78;;;1.15;;
55260;SDS011;41123;51.416;6.758;2022-09-09T16:39:48;2.88;;;0.88;;
55260;SDS011;41123;51.416;6.758;2022-09-09T16:42:15;2.95;;;1.10;;
55260;SDS011;41123;51.416;6.758;2022-09-09T16:44:42;4.68;;;1.40;;
55260;SDS011;41123;51.416;6.758;2022-09-09T16:47:08;2.85;;;1.40;;
55260;SDS011;41123;51.416;6.758;2022-09-09T16:49:34;3.30;;;1.20;;
55260;SDS011;41123;51.416;6.758;2022-09-09T16:52:01;3.30;;;1.33;;